createdAt,value
2023-01-01T00:06:10.981Z,1886.6989966555184
2023-01-01T00:14:11.749Z,1934.819397993311
2023-01-01T00:20:35.357Z,1856.638795986622
2023-01-01T00:32:22.584Z,2027.3578595317726
2023-01-01T00:38:42.998Z,1817.3076923076924
2023-01-01T00:45:59.453Z,1398.0903010033444
2023-01-01T00:52:19.335Z,1332.5819397993312
2023-01-01T00:58:38.864Z,1212.6120401337794
2023-01-01T01:10:38.159Z,1245.923076923077
2023-01-01T01:16:57.845Z,1174.7357859531774
2023-01-01T01:23:17.186Z,1151.4983277591973
2023-01-01T01:29:36.721Z,1071.1404682274247
2023-01-01T01:35:57.985Z,1130.7591973244148
2023-01-01T01:42:17.977Z,1026.5217391304348
2023-01-01T01:48:38.553Z,1084.836120401338
2023-01-01T01:54:57.736Z,2138.9799331103677
2023-01-01T02:01:16.836Z,1116.1003344481605
2023-01-01T02:07:35.713Z,1128.3311036789298
2023-01-01T02:13:54.658Z,1339.8160535117056
2023-01-01T02:26:16.850Z,1341.1204013377926
2023-01-01T02:41:03.973Z,1360.3344481605352
2023-01-01T02:47:22.826Z,1285.9464882943143
2023-01-01T02:53:41.761Z,1276.1337792642141
2023-01-01T03:00:00.620Z,1142.5284280936455
2023-01-01T03:06:19.820Z,1210.505016722408
2023-01-01T03:12:39.471Z,1247.28762541806
2023-01-01T03:18:58.245Z,1238.6789297658863
2023-01-01T03:26:40.508Z,1415.428093645485
2023-01-01T03:32:58.877Z,1346.8695652173913
2023-01-01T03:39:17.913Z,1348.3444816053511
2023-01-01T03:45:36.881Z,1353.531772575251
2023-01-01T03:53:30.512Z,1265.3076923076924
2023-01-01T03:59:49.032Z,1194.551839464883
2023-01-01T04:13:59.125Z,1227.6020066889632
2023-01-01T04:21:56.392Z,1192.7257525083612
2023-01-01T04:32:08.854Z,1135.8662207357859
2023-01-01T04:38:28.144Z,1053.752508361204
2023-01-01T04:44:47.069Z,994.5250836120401
2023-01-01T04:51:06.378Z,963.6120401337793
2023-01-01T05:03:41.662Z,881.418060200669
2023-01-01T05:20:49.495Z,794.6688963210702
2023-01-01T05:30:30.607Z,857.247491638796
2023-01-01T05:36:49.354Z,856.4648829431438
2023-01-01T05:43:08.141Z,842.9197324414715
2023-01-01T05:49:27.879Z,733.0735785953177
2023-01-01T05:55:47.063Z,714.4615384615385
2023-01-01T06:06:24.009Z,587.5284280936455
2023-01-01T06:12:43.665Z,625.1839464882943
2023-01-01T06:19:03.261Z,544.0836120401337
2023-01-01T06:30:51.108Z,533.7993311036789
2023-01-01T06:42:40.456Z,443.1371237458194
2023-01-01T06:49:01.135Z,382.84615384615387
2023-01-01T06:55:22.186Z,401.9799331103679
2023-01-01T07:01:45.436Z,398.5183946488294
2023-01-01T07:08:05.863Z,410.5886287625418
2023-01-01T07:14:28.905Z,408.6321070234114
2023-01-01T07:20:48.948Z,400.0836120401338
2023-01-01T07:27:10.187Z,394.9966555183947
2023-01-01T07:33:32.270Z,411.4816053511706
2023-01-01T07:39:54.168Z,403.54515050167225
2023-01-01T07:46:18.128Z,349.73578595317724
2023-01-01T07:52:42.942Z,349.6254180602007
2023-01-01T07:59:03.623Z,351.33110367892976
2023-01-01T08:09:51.692Z,300.8829431438127
2023-01-01T08:16:13.811Z,335.16722408026754
2023-01-01T08:22:36.699Z,306.81270903010034
2023-01-01T08:28:58.344Z,330.0903010033445
2023-01-01T08:35:21.289Z,358.4448160535117
2023-01-01T08:41:44.146Z,383.98996655518397
2023-01-01T08:50:31.779Z,381.7123745819398
2023-01-01T09:00:28.881Z,393.933110367893
2023-01-01T09:06:53.593Z,328.4849498327759
2023-01-01T09:13:21.557Z,330.72240802675583
2023-01-01T09:22:43.976Z,293.88963210702343
2023-01-01T09:29:06.751Z,278.0267558528428
2023-01-01T09:37:53.336Z,184.1036789297659
2023-01-01T09:44:15.674Z,139.05351170568562
2023-01-01T09:50:41.111Z,118.4448160535117
2023-01-01T09:57:04.576Z,168.02006688963212
2023-01-01T10:03:30.421Z,160.0133779264214
2023-01-01T10:11:11.165Z,95.3076923076923
2023-01-01T10:17:34.580Z,77.20735785953177
2023-01-01T10:23:58.187Z,131.77926421404683
2023-01-01T10:30:27.707Z,159.1103678929766
2023-01-01T10:39:26.778Z,70.29431438127091
2023-01-01T10:45:49.080Z,89.31772575250837
2023-01-01T10:52:12.254Z,122.57859531772576
2023-01-01T10:58:35.590Z,142.41471571906354
2023-01-01T11:04:58.046Z,169.13377926421404
2023-01-01T11:20:20.168Z,167.03678929765886
2023-01-01T11:30:52.932Z,88.10367892976589
2023-01-01T11:37:14.924Z,101.81939799331104
2023-01-01T11:43:36.683Z,211.52508361204013
2023-01-01T11:54:48.260Z,226.99665551839465
2023-01-01T12:01:09.660Z,191.62876254180603
2023-01-01T12:07:32.193Z,226.5351170568562
2023-01-01T12:13:54.704Z,156.87290969899666
2023-01-01T12:20:16.300Z,150.66220735785953
2023-01-01T12:26:38.141Z,168.8227424749164
2023-01-01T12:33:07.360Z,238.52508361204013
2023-01-01T12:44:46.627Z,193.4046822742475
2023-01-01T12:51:08.518Z,213.63210702341138
2023-01-01T12:57:30.789Z,356.6588628762542
2023-01-01T13:03:53.027Z,299.66889632107024
2023-01-01T13:10:15.134Z,213.92307692307693
2023-01-01T13:21:15.911Z,202.12374581939798
2023-01-01T13:27:38.601Z,224.4180602006689
2023-01-01T13:34:02.221Z,223.99665551839465
2023-01-01T13:46:21.388Z,283.2943143812709
2023-01-01T13:58:51.536Z,193.7056856187291
2023-01-01T14:05:13.000Z,255.3210702341137
2023-01-01T14:11:35.224Z,317.5785953177257
2023-01-01T14:18:00.552Z,289.80602006688963
2023-01-01T14:24:23.995Z,343.0735785953177
2023-01-01T14:30:50.209Z,270.05016722408027
2023-01-01T14:37:13.628Z,313.494983277592
2023-01-01T14:43:40.823Z,298.82608695652175
2023-01-01T14:50:03.756Z,293.25752508361205
2023-01-01T14:56:26.700Z,280.0535117056856
2023-01-01T15:02:49.974Z,330.8829431438127
2023-01-01T15:09:23.551Z,452.7792642140468
2023-01-01T15:15:55.663Z,397.10367892976586
2023-01-01T15:26:50.311Z,468.4314381270903
2023-01-01T15:33:09.920Z,514.6454849498327
2023-01-01T15:39:55.141Z,508.2742474916388
2023-01-01T15:50:23.342Z,550.4749163879599
2023-01-01T15:58:41.480Z,551.6086956521739
2023-01-01T16:05:01.672Z,623.418060200669
2023-01-01T16:11:22.854Z,706.8160535117057
2023-01-01T16:22:48.977Z,682.9966555183946
2023-01-01T16:29:09.438Z,662.7993311036789
2023-01-01T16:37:12.912Z,714.6722408026756
2023-01-01T16:49:12.890Z,895.123745819398
2023-01-01T16:55:36.034Z,857.7692307692307
2023-01-01T17:01:58.438Z,830.5986622073578
2023-01-01T17:12:39.428Z,943.85618729097
2023-01-01T17:27:56.510Z,780.8628762541806
2023-01-01T17:34:17.296Z,808.314381270903
2023-01-01T17:40:38.420Z,952.7959866220735
2023-01-01T17:46:58.635Z,993.2709030100334
2023-01-01T17:53:18.247Z,1236.6220735785953
2023-01-01T17:59:37.721Z,1275.0501672240803
2023-01-01T18:05:57.324Z,1123.4548494983278
2023-01-01T18:14:26.192Z,2776.7458193979933
2023-01-01T18:20:46.459Z,1976.1371237458195
2023-01-01T18:27:35.086Z,1419.1003344481605
2023-01-01T18:37:22.893Z,1196.1270903010034
2023-01-01T18:43:42.524Z,1464.76254180602
2023-01-01T18:54:06.703Z,1888.6354515050168
2023-01-01T19:00:26.999Z,1719.571906354515
2023-01-01T19:06:48.230Z,1685.6989966555184
2023-01-01T19:13:09.775Z,1402.6053511705686
2023-01-01T19:20:59.682Z,1266.732441471572
2023-01-01T19:27:30.661Z,1142.6789297658863
2023-01-01T19:33:50.578Z,1190.608695652174
2023-01-01T19:40:10.636Z,1149.6521739130435
2023-01-01T19:46:31.368Z,1114.4046822742475
2023-01-01T19:52:50.846Z,1181.036789297659
2023-01-01T19:59:14.904Z,1199.7892976588628
2023-01-01T20:05:35.530Z,1049.4782608695652
2023-01-01T20:11:56.350Z,1064.6688963210702
2023-01-01T20:19:13.291Z,883.5351170568562
2023-01-01T20:25:33.255Z,798.8428093645485
2023-01-01T20:31:52.621Z,821.9598662207358
2023-01-01T20:40:54.504Z,760.0033444816054
2023-01-01T20:47:15.438Z,735.8829431438127
2023-01-01T20:53:35.309Z,727.9565217391304
2023-01-01T20:59:55.883Z,717.7625418060201
2023-01-01T21:06:20.027Z,617.6488294314381
2023-01-01T21:12:46.602Z,585.3010033444816
2023-01-01T21:19:06.573Z,558.9230769230769
2023-01-01T21:32:02.848Z,544.5150501672241
2023-01-01T21:38:26.843Z,559.6254180602007
2023-01-01T21:44:46.091Z,563.5284280936455
2023-01-01T21:57:03.458Z,569.6588628762541
2023-01-01T22:03:24.094Z,549.0602006688963
2023-01-01T22:10:06.315Z,600.3110367892976
2023-01-01T22:16:28.452Z,632.6688963210702
2023-01-01T22:22:51.932Z,649.9565217391304
2023-01-01T22:29:12.013Z,740.1270903010034
2023-01-01T22:35:33.464Z,635.9297658862877
2023-01-01T22:43:51.793Z,630.8628762541806
2023-01-01T22:50:14.905Z,640.2742474916388
2023-01-01T22:56:37.272Z,732.0
2023-01-01T23:02:58.216Z,787.7658862876254
2023-01-01T23:09:20.082Z,860.6989966555184
2023-01-01T23:15:41.146Z,881.6488294314381
2023-01-01T23:25:29.288Z,728.2976588628762
2023-01-01T23:31:48.791Z,798.9832775919732
2023-01-01T23:38:16.269Z,1051.9866220735787
2023-01-01T23:44:36.999Z,1035.1304347826087
2023-01-01T23:50:58.029Z,1045.1939799331103
2023-01-01T23:57:19.533Z,934.1939799331103
